Time;durP1;ratioP1;P1;durP2;ratioP2;P2;SDS_P1;SDS_P2;PMS_P1;PMS_P2;Temp;Humidity;BMP_temperature;BMP_pressure;BME280_temperature;BME280_humidity;BME280_pressure;Samples;Min_cycle;Max_cycle;Signal;HPM_P1;HPM_P2
2021/05/26 00:01:24;;;;;;;2.92;0.68;;;16.00;52.70;;;;;;2626982;52;20930;-64
2021/05/26 00:03:52;;;;;;;1.35;0.47;;;16.00;53.00;;;;;;2378126;52;21037;-64
2021/05/26 00:06:19;;;;;;;1.15;0.50;;;15.90;53.20;;;;;;2373651;53;21024;-65
2021/05/26 00:08:46;;;;;;;2.00;0.50;;;15.90;53.50;;;;;;2374207;52;21366;-65
2021/05/26 00:11:18;;;;;;;1.50;0.50;;;15.80;53.70;;;;;;2623361;52;20946;-64
2021/05/26 00:13:53;;;;;;;1.62;0.45;;;15.80;53.90;;;;;;2502858;53;21922;-64
2021/05/26 00:16:20;;;;;;;1.85;0.45;;;15.70;54.00;;;;;;2627599;52;21318;-64
2021/05/26 00:18:46;;;;;;;2.03;0.40;;;15.70;54.10;;;;;;2373205;53;20906;-65
2021/05/26 00:21:12;;;;;;;2.85;0.50;;;15.60;54.20;;;;;;2626667;52;21425;-65
2021/05/26 00:23:39;;;;;;;2.72;0.60;;;15.60;54.10;;;;;;2374070;53;21277;-64
2021/05/26 00:26:05;;;;;;;2.37;0.60;;;15.60;54.20;;;;;;2627656;52;21732;-64
2021/05/26 00:28:31;;;;;;;2.45;0.60;;;15.60;54.30;;;;;;2377884;52;20950;-64
2021/05/26 00:30:59;;;;;;;4.53;0.60;;;15.50;54.30;;;;;;2626221;52;21375;-65
2021/05/26 00:33:26;;;;;;;1.95;0.40;;;15.50;54.50;;;;;;2370195;53;20926;-64
2021/05/26 00:35:52;;;;;;;1.58;0.50;;;15.50;54.60;;;;;;2376448;53;20953;-65
2021/05/26 00:38:20;;;;;;;2.90;0.60;;;15.50;55.00;;;;;;2373406;53;20994;-65
2021/05/26 00:40:47;;;;;;;2.62;0.57;;;15.50;54.80;;;;;;2374031;53;20917;-65
2021/05/26 00:43:17;;;;;;;2.40;0.60;;;15.50;54.80;;;;;;2371600;53;21048;-64
2021/05/26 00:45:44;;;;;;;2.17;0.50;;;15.50;54.80;;;;;;2376713;52;20934;-64
2021/05/26 00:48:11;;;;;;;2.25;0.57;;;15.50;54.80;;;;;;2627049;52;20933;-65
2021/05/26 00:50:37;;;;;;;2.25;0.60;;;15.50;54.90;;;;;;2373679;53;20941;-65
2021/05/26 00:53:08;;;;;;;2.03;0.50;;;15.50;54.90;;;;;;2374116;53;20907;-64
2021/05/26 00:55:34;;;;;;;0.88;0.40;;;15.50;54.90;;;;;;2374536;53;21420;-64
2021/05/26 00:58:02;;;;;;;2.03;0.60;;;15.50;55.00;;;;;;2374275;53;20937;-64
2021/05/26 01:00:29;;;;;;;2.40;0.43;;;15.40;55.00;;;;;;2374088;53;20961;-64
2021/05/26 01:02:56;;;;;;;1.67;0.50;;;15.50;55.20;;;;;;2374609;52;21458;-64
2021/05/26 01:05:23;;;;;;;2.10;0.50;;;15.50;55.30;;;;;;2373601;53;20925;-64
2021/05/26 01:07:51;;;;;;;2.28;0.55;;;15.50;55.30;;;;;;2374134;53;20945;-64
2021/05/26 01:10:21;;;;;;;2.35;0.62;;;15.50;55.30;;;;;;2373590;53;20988;-65
2021/05/26 01:12:47;;;;;;;1.55;0.60;;;15.50;55.40;;;;;;2378475;52;21057;-65
2021/05/26 01:15:14;;;;;;;1.87;0.50;;;15.50;55.30;;;;;;2377276;52;21025;-65
2021/05/26 01:17:41;;;;;;;2.47;0.70;;;15.50;55.40;;;;;;2376930;53;20983;-64
2021/05/26 01:20:09;;;;;;;1.27;0.47;;;15.50;55.50;;;;;;2625820;52;20909;-65
2021/05/26 01:22:36;;;;;;;1.40;0.40;;;15.50;55.50;;;;;;2627048;52;20897;-65
2021/05/26 01:25:06;;;;;;;1.75;0.40;;;15.50;55.60;;;;;;2374368;52;20996;-64
2021/05/26 01:27:33;;;;;;;2.35;0.68;;;15.50;55.50;;;;;;2354063;53;21945;-66
2021/05/26 01:30:02;;;;;;;1.00;0.32;;;15.50;55.60;;;;;;2374284;52;21192;-64
2021/05/26 01:32:28;;;;;;;4.43;0.75;;;15.50;55.70;;;;;;2378528;53;21057;-64
2021/05/26 01:34:54;;;;;;;2.22;0.62;;;15.50;55.70;;;;;;2373394;53;20913;-65
2021/05/26 01:37:22;;;;;;;3.40;0.60;;;15.50;55.70;;;;;;2373879;53;21524;-65
2021/05/26 01:39:51;;;;;;;1.98;0.50;;;15.50;55.70;;;;;;2377455;52;20953;-65
2021/05/26 01:42:28;;;;;;;2.42;0.60;;;15.50;55.90;;;;;;2372797;53;21065;-65
2021/05/26 01:44:54;;;;;;;1.02;0.50;;;15.50;55.70;;;;;;2377539;52;21418;-64
2021/05/26 01:47:20;;;;;;;2.17;0.50;;;15.50;55.90;;;;;;2374546;53;21461;-64
2021/05/26 01:49:47;;;;;;;1.60;0.60;;;15.50;55.90;;;;;;2374127;52;20953;-64
2021/05/26 01:52:13;;;;;;;1.30;0.45;;;15.50;56.00;;;;;;2374172;53;20985;-65
2021/05/26 01:54:42;;;;;;;1.62;0.60;;;15.50;56.00;;;;;;2374547;52;21422;-64
2021/05/26 01:57:09;;;;;;;0.85;0.40;;;15.50;56.00;;;;;;2353734;53;20953;-65
2021/05/26 01:59:35;;;;;;;2.40;0.55;;;15.50;56.10;;;;;;2627797;52;20982;-64
2021/05/26 02:02:01;;;;;;;1.48;0.47;;;15.50;56.10;;;;;;2373889;53;20965;-65
2021/05/26 02:04:28;;;;;;;1.60;0.55;;;15.40;56.00;;;;;;2374036;53;20937;-64
2021/05/26 02:07:08;;;;;;;2.53;0.60;;;15.50;56.20;;;;;;2374709;52;20949;-65
2021/05/26 02:09:34;;;;;;;2.78;0.50;;;15.40;56.10;;;;;;2378040;52;20966;-64
2021/05/26 02:12:22;;;;;;;3.40;1.02;;;15.40;56.30;;;;;;2373307;53;20950;-65
2021/05/26 02:14:50;;;;;;;2.75;0.70;;;15.40;56.30;;;;;;2377301;52;20973;-65
2021/05/26 02:17:17;;;;;;;2.78;1.12;;;15.40;56.30;;;;;;2378292;52;20910;-64
2021/05/26 02:19:43;;;;;;;3.90;0.80;;;15.30;56.30;;;;;;2372941;53;20938;-65
2021/05/26 02:22:10;;;;;;;2.37;0.55;;;15.30;56.40;;;;;;2373630;53;20933;-65
2021/05/26 02:24:36;;;;;;;2.17;0.57;;;15.30;56.30;;;;;;2374612;52;20937;-65
2021/05/26 02:27:02;;;;;;;4.95;0.95;;;15.30;56.40;;;;;;2377307;52;20912;-65
2021/05/26 02:29:29;;;;;;;1.50;0.60;;;15.30;56.50;;;;;;2373457;53;20994;-65
2021/05/26 02:31:56;;;;;;;3.42;0.88;;;15.30;56.50;;;;;;2379079;52;20926;-64
2021/05/26 02:34:22;;;;;;;3.45;0.70;;;15.30;56.60;;;;;;2352876;53;20921;-64
2021/05/26 02:36:48;;;;;;;1.40;0.50;;;15.20;56.60;;;;;;2377636;52;20918;-64
2021/05/26 02:39:14;;;;;;;2.75;0.80;;;15.30;56.70;;;;;;2373295;52;20953;-64
2021/05/26 02:41:41;;;;;;;2.50;0.70;;;15.20;56.60;;;;;;2383056;52;20999;-64
2021/05/26 02:44:07;;;;;;;2.78;0.62;;;15.20;56.70;;;;;;2365313;53;21109;-65
2021/05/26 02:46:34;;;;;;;1.77;0.60;;;15.20;57.40;;;;;;2374147;52;20937;-64
2021/05/26 02:49:02;;;;;;;1.98;0.80;;;15.20;56.90;;;;;;2545121;52;20917;-64
2021/05/26 02:51:28;;;;;;;3.75;0.70;;;15.20;56.90;;;;;;2374238;53;20980;-64
2021/05/26 02:53:54;;;;;;;1.58;0.50;;;15.20;57.00;;;;;;2374683;52;20961;-65
2021/05/26 02:56:20;;;;;;;3.87;0.90;;;15.10;57.00;;;;;;2372969;52;20929;-64
2021/05/26 02:58:50;;;;;;;3.15;0.50;;;15.10;57.00;;;;;;2374568;52;20905;-64
2021/05/26 03:01:16;;;;;;;2.22;0.77;;;15.00;57.00;;;;;;2374409;52;20988;-64
2021/05/26 03:03:42;;;;;;;1.60;0.57;;;15.00;57.10;;;;;;2375178;52;20973;-64
2021/05/26 03:06:09;;;;;;;2.50;0.70;;;15.00;57.10;;;;;;2374039;52;20938;-64
2021/05/26 03:08:35;;;;;;;4.20;0.93;;;14.90;57.10;;;;;;2627732;52;20934;-65
2021/05/26 03:11:01;;;;;;;1.77;0.57;;;14.90;57.20;;;;;;2378891;52;20948;-64
2021/05/26 03:13:27;;;;;;;2.25;0.80;;;14.80;57.30;;;;;;2369723;53;21847;-64
2021/05/26 03:15:57;;;;;;;2.45;0.50;;;14.80;57.40;;;;;;2363625;52;21675;-64
2021/05/26 03:18:24;;;;;;;2.65;0.60;;;14.70;57.40;;;;;;2374797;53;20948;-64
2021/05/26 03:20:50;;;;;;;2.30;0.70;;;14.70;57.50;;;;;;2373989;52;20953;-64
2021/05/26 03:23:18;;;;;;;1.15;0.43;;;14.60;57.60;;;;;;2417390;52;20993;-64
2021/05/26 03:25:47;;;;;;;1.85;0.40;;;14.60;57.80;;;;;;2627616;52;21561;-64
2021/05/26 03:28:14;;;;;;;3.83;0.68;;;14.50;57.80;;;;;;2373248;52;21041;-64
2021/05/26 03:30:41;;;;;;;3.08;0.52;;;14.50;58.00;;;;;;2377182;53;21950;-64
2021/05/26 03:33:10;;;;;;;2.17;0.50;;;14.50;58.10;;;;;;2374836;53;20965;-64
2021/05/26 03:35:40;;;;;;;1.65;0.43;;;14.50;58.30;;;;;;2374659;52;21836;-65
2021/05/26 03:38:06;;;;;;;1.40;0.57;;;14.40;58.40;;;;;;2374426;52;21819;-64
2021/05/26 03:40:33;;;;;;;2.17;0.70;;;14.40;58.40;;;;;;2375107;52;22005;-64
2021/05/26 03:43:03;;;;;;;1.98;0.60;;;14.40;58.50;;;;;;2374484;52;20981;-64
2021/05/26 03:45:29;;;;;;;3.80;1.00;;;14.40;58.60;;;;;;2380294;52;20986;-64
2021/05/26 03:47:57;;;;;;;2.15;0.50;;;14.30;58.60;;;;;;2376108;53;20993;-64
2021/05/26 03:50:23;;;;;;;3.08;0.70;;;14.30;58.70;;;;;;2374991;52;21788;-64
2021/05/26 03:52:51;;;;;;;3.47;0.60;;;14.20;58.70;;;;;;2626860;52;20941;-65
2021/05/26 03:55:19;;;;;;;3.08;0.60;;;14.20;58.90;;;;;;2354301;53;20989;-63
2021/05/26 03:57:45;;;;;;;1.98;0.60;;;14.20;59.00;;;;;;2379208;52;20926;-64
2021/05/26 04:00:12;;;;;;;2.33;0.60;;;14.10;59.10;;;;;;2625933;52;20953;-64
2021/05/26 04:02:39;;;;;;;3.42;0.75;;;14.10;59.20;;;;;;2373996;52;20913;-64
2021/05/26 04:05:06;;;;;;;1.83;0.47;;;14.10;59.30;;;;;;2395101;52;20924;-64
2021/05/26 04:07:33;;;;;;;1.92;0.62;;;14.10;59.30;;;;;;2369791;53;21858;-64
2021/05/26 04:09:59;;;;;;;4.03;1.00;;;14.00;59.30;;;;;;2381847;52;21013;-65
2021/05/26 04:12:28;;;;;;;2.20;0.60;;;14.00;59.50;;;;;;2611628;52;20945;-65
2021/05/26 04:14:55;;;;;;;1.02;0.43;;;14.00;59.60;;;;;;2374743;52;21006;-64
2021/05/26 04:17:22;;;;;;;2.62;0.80;;;14.00;59.70;;;;;;2374205;53;20976;-64
2021/05/26 04:19:48;;;;;;;3.03;0.60;;;14.00;59.80;;;;;;2353289;53;20925;-65
2021/05/26 04:22:14;;;;;;;2.30;0.70;;;14.00;59.90;;;;;;2627245;52;21001;-64
2021/05/26 04:24:41;;;;;;;2.12;0.60;;;14.00;60.10;;;;;;2374607;52;20965;-64
2021/05/26 04:27:07;;;;;;;2.37;1.10;;;14.00;60.20;;;;;;2627387;52;20940;-64
2021/05/26 04:29:34;;;;;;;2.83;1.40;;;13.90;60.30;;;;;;2627823;52;21542;-64
2021/05/26 04:32:00;;;;;;;4.45;2.10;;;14.00;60.50;;;;;;2483011;52;20910;-65
2021/05/26 04:34:26;;;;;;;4.78;2.22;;;14.00;60.60;;;;;;2377197;52;20954;-64
2021/05/26 04:36:53;;;;;;;4.28;1.92;;;14.00;60.70;;;;;;2373174;52;20993;-64
2021/05/26 04:39:19;;;;;;;3.25;1.33;;;14.00;60.80;;;;;;2628283;52;20970;-64
2021/05/26 04:41:46;;;;;;;3.50;0.95;;;14.00;60.90;;;;;;2367307;53;20908;-64
2021/05/26 04:44:12;;;;;;;1.60;0.60;;;14.00;60.90;;;;;;2625203;52;20921;-64
2021/05/26 04:46:39;;;;;;;2.65;0.75;;;14.00;60.90;;;;;;2374331;52;20988;-64
2021/05/26 04:49:05;;;;;;;2.30;0.62;;;14.00;61.00;;;;;;2627563;52;21029;-65
2021/05/26 04:51:31;;;;;;;2.37;0.70;;;14.00;61.10;;;;;;2377979;52;20934;-64
2021/05/26 04:53:57;;;;;;;3.12;0.75;;;14.00;61.10;;;;;;2377794;52;20874;-64
2021/05/26 04:56:24;;;;;;;2.72;0.60;;;14.00;61.20;;;;;;2373037;53;20953;-65
2021/05/26 04:58:50;;;;;;;2.35;0.77;;;14.00;61.30;;;;;;2374334;53;20973;-64
2021/05/26 05:01:17;;;;;;;3.35;0.90;;;14.00;61.30;;;;;;2381783;52;20984;-65
2021/05/26 05:03:43;;;;;;;2.25;0.90;;;14.00;61.40;;;;;;2361769;53;20938;-65
2021/05/26 05:06:10;;;;;;;4.55;0.80;;;14.00;61.50;;;;;;2372516;52;20942;-65
2021/05/26 05:08:38;;;;;;;3.22;0.88;;;14.00;61.70;;;;;;2626958;52;20981;-65
2021/05/26 05:11:04;;;;;;;4.82;1.10;;;14.00;61.70;;;;;;2381451;52;20954;-64
2021/05/26 05:13:31;;;;;;;3.55;1.15;;;14.00;61.90;;;;;;2618385;52;20942;-64
2021/05/26 05:15:57;;;;;;;2.72;0.70;;;14.00;61.90;;;;;;2373112;53;20954;-64
2021/05/26 05:18:24;;;;;;;2.58;0.70;;;14.00;62.00;;;;;;2367948;52;21035;-64
2021/05/26 05:20:50;;;;;;;5.07;1.17;;;14.00;62.10;;;;;;2369964;53;20957;-65
2021/05/26 05:23:16;;;;;;;4.82;1.42;;;14.00;62.20;;;;;;2598462;52;20916;-64
2021/05/26 05:25:43;;;;;;;4.87;1.95;;;14.00;62.20;;;;;;2628032;52;20922;-64
2021/05/26 05:28:10;;;;;;;4.93;1.42;;;14.00;62.20;;;;;;2627120;52;20894;-65
2021/05/26 05:30:37;;;;;;;4.87;1.40;;;14.00;62.20;;;;;;2376205;53;21041;-66
2021/05/26 05:33:03;;;;;;;3.83;1.40;;;14.00;62.30;;;;;;2373935;53;20997;-64
2021/05/26 05:35:30;;;;;;;2.90;0.75;;;14.00;63.20;;;;;;2374386;53;21393;-65
2021/05/26 05:37:59;;;;;;;3.40;1.10;;;14.00;62.60;;;;;;2626854;52;20938;-64
2021/05/26 05:40:26;;;;;;;3.05;0.80;;;14.00;62.60;;;;;;2373822;53;20961;-65
2021/05/26 05:42:53;;;;;;;4.93;0.98;;;14.00;62.70;;;;;;2626811;52;20966;-65
2021/05/26 05:45:20;;;;;;;4.55;1.15;;;14.00;62.70;;;;;;2626929;52;20927;-64
2021/05/26 05:47:47;;;;;;;4.05;1.20;;;14.00;62.70;;;;;;2627423;52;20916;-64
2021/05/26 05:50:17;;;;;;;3.28;0.82;;;14.00;62.80;;;;;;2377737;52;21824;-63
2021/05/26 05:52:43;;;;;;;2.12;0.88;;;14.00;62.80;;;;;;2371420;53;20930;-64
2021/05/26 05:55:11;;;;;;;4.45;1.42;;;14.10;63.00;;;;;;2378056;52;20929;-64
2021/05/26 05:57:40;;;;;;;3.15;0.90;;;14.10;63.00;;;;;;2619828;52;20976;-65
2021/05/26 06:00:07;;;;;;;2.97;0.70;;;14.20;63.10;;;;;;2377939;53;21280;-64
2021/05/26 06:02:37;;;;;;;4.25;1.00;;;14.20;63.10;;;;;;2620576;52;21065;-65
2021/05/26 06:05:04;;;;;;;4.10;1.23;;;14.20;62.90;;;;;;2372748;52;20938;-64
2021/05/26 06:07:30;;;;;;;5.87;1.05;;;14.20;62.90;;;;;;2373810;52;21056;-64
2021/05/26 06:09:57;;;;;;;4.62;1.00;;;14.20;62.90;;;;;;2377736;52;20921;-64
2021/05/26 06:12:24;;;;;;;4.68;1.23;;;14.30;62.90;;;;;;2617788;52;20910;-64
2021/05/26 06:14:50;;;;;;;3.67;1.37;;;14.30;62.80;;;;;;2378105;52;20954;-64
2021/05/26 06:17:16;;;;;;;4.85;1.00;;;14.30;62.80;;;;;;2364987;53;21344;-64
2021/05/26 06:19:42;;;;;;;2.17;0.80;;;14.40;63.00;;;;;;2517908;52;21086;-65
2021/05/26 06:22:09;;;;;;;2.95;1.10;;;14.40;63.00;;;;;;2373453;53;20968;-64
2021/05/26 06:24:36;;;;;;;6.90;1.62;;;14.40;63.00;;;;;;2577172;52;21394;-64
2021/05/26 06:27:02;;;;;;;4.50;1.58;;;14.40;62.90;;;;;;2370802;52;20933;-65
2021/05/26 06:29:29;;;;;;;5.35;1.20;;;14.40;62.90;;;;;;2373708;53;20910;-63
2021/05/26 06:31:57;;;;;;;4.32;1.50;;;14.40;63.00;;;;;;2626098;52;21399;-64
2021/05/26 06:34:23;;;;;;;3.80;1.55;;;14.50;63.10;;;;;;2627514;52;20985;-65
2021/05/26 06:36:50;;;;;;;3.75;1.50;;;14.50;63.10;;;;;;2372670;53;21845;-66
2021/05/26 06:39:16;;;;;;;3.87;1.08;;;14.50;63.00;;;;;;2374007;53;20953;-64
2021/05/26 06:41:43;;;;;;;4.93;1.08;;;14.50;62.90;;;;;;2378883;52;20985;-64
2021/05/26 06:44:10;;;;;;;4.07;1.17;;;14.50;62.90;;;;;;2373749;53;20945;-64
2021/05/26 06:46:38;;;;;;;3.53;1.35;;;14.60;63.00;;;;;;2375702;52;21280;-64
2021/05/26 06:49:05;;;;;;;3.72;1.00;;;14.60;62.90;;;;;;2375372;53;20933;-64
2021/05/26 06:51:32;;;;;;;4.25;1.15;;;14.60;62.90;;;;;;2628446;52;20870;-64
2021/05/26 06:53:58;;;;;;;3.08;0.88;;;14.60;62.80;;;;;;2375954;52;20917;-64
2021/05/26 06:56:26;;;;;;;3.75;1.05;;;14.60;62.70;;;;;;2628253;52;20897;-65
2021/05/26 06:58:55;;;;;;;4.57;1.37;;;14.60;62.70;;;;;;2377007;53;20918;-64
2021/05/26 07:01:24;;;;;;;4.35;1.45;;;14.70;62.80;;;;;;2448047;52;20969;-65
2021/05/26 07:03:50;;;;;;;3.10;1.10;;;14.60;62.70;;;;;;2374328;53;20925;-64
2021/05/26 07:06:18;;;;;;;3.65;1.00;;;14.60;62.80;;;;;;2374841;52;21399;-64
2021/05/26 07:08:45;;;;;;;2.55;0.98;;;14.60;62.80;;;;;;2628328;52;21419;-64
2021/05/26 07:11:12;;;;;;;4.32;1.42;;;14.60;62.80;;;;;;2373003;53;20921;-64
2021/05/26 07:13:38;;;;;;;3.00;1.00;;;14.70;62.80;;;;;;2374729;52;20941;-65
2021/05/26 07:16:05;;;;;;;4.70;1.30;;;14.70;62.80;;;;;;2382505;52;21399;-65
2021/05/26 07:18:33;;;;;;;7.15;1.60;;;14.60;62.70;;;;;;2372535;52;20993;-65
2021/05/26 07:21:00;;;;;;;4.87;1.33;;;14.70;62.60;;;;;;2617390;52;20948;-64
2021/05/26 07:23:26;;;;;;;4.45;1.33;;;14.70;62.60;;;;;;2375463;52;20930;-64
2021/05/26 07:25:58;;;;;;;8.13;1.50;;;14.60;62.50;;;;;;2404411;52;20913;-64
2021/05/26 07:28:25;;;;;;;6.10;1.37;;;14.70;62.50;;;;;;2375355;53;20985;-64
2021/05/26 07:30:51;;;;;;;4.30;1.20;;;14.70;62.30;;;;;;2374894;52;20945;-64
2021/05/26 07:33:18;;;;;;;3.60;1.20;;;14.70;62.30;;;;;;2374822;52;20921;-64
2021/05/26 07:35:44;;;;;;;6.50;1.40;;;14.70;62.30;;;;;;2628524;52;20953;-64
2021/05/26 07:38:19;;;;;;;5.50;1.50;;;14.70;62.20;;;;;;2381809;52;21471;-64
2021/05/26 07:40:46;;;;;;;4.43;1.40;;;14.70;62.10;;;;;;2622225;52;20968;-65
2021/05/26 07:43:12;;;;;;;5.97;1.30;;;14.60;62.00;;;;;;2378977;52;20934;-64
2021/05/26 07:45:39;;;;;;;7.70;1.42;;;14.70;61.70;;;;;;2627509;52;20893;-65
2021/05/26 07:48:07;;;;;;;4.60;1.15;;;14.60;61.70;;;;;;2375135;53;20933;-64
2021/05/26 07:50:37;;;;;;;5.70;1.48;;;14.60;61.50;;;;;;2378411;52;21859;-63
2021/05/26 07:53:05;;;;;;;3.45;1.12;;;14.70;61.40;;;;;;2378283;52;20986;-63
2021/05/26 07:55:32;;;;;;;5.15;1.48;;;14.70;61.00;;;;;;2613110;52;20931;-65
2021/05/26 07:57:59;;;;;;;6.45;1.77;;;14.70;61.10;;;;;;2374418;53;20953;-64
2021/05/26 08:00:25;;;;;;;5.20;1.58;;;14.70;61.10;;;;;;2382195;53;20922;-63
2021/05/26 08:02:53;;;;;;;5.82;1.70;;;14.60;61.20;;;;;;2366195;53;21007;-64
2021/05/26 08:05:21;;;;;;;4.57;1.40;;;14.60;60.90;;;;;;2527370;52;20977;-64
2021/05/26 08:07:47;;;;;;;3.42;1.20;;;14.70;61.10;;;;;;2374551;53;20941;-65
2021/05/26 08:10:14;;;;;;;5.70;1.35;;;14.60;60.80;;;;;;2375051;52;20897;-65
2021/05/26 08:12:41;;;;;;;5.80;1.70;;;14.60;60.40;;;;;;2378160;52;20930;-65
2021/05/26 08:15:08;;;;;;;7.62;1.80;;;14.60;59.40;;;;;;2375307;53;20969;-65
2021/05/26 08:17:35;;;;;;;3.35;1.30;;;14.60;59.60;;;;;;2375002;53;21284;-64
2021/05/26 08:20:03;;;;;;;5.93;1.77;;;14.60;59.80;;;;;;2628543;52;20942;-64
2021/05/26 08:22:29;;;;;;;4.43;1.25;;;14.60;59.10;;;;;;2375058;53;20932;-65
2021/05/26 08:24:55;;;;;;;4.37;1.30;;;14.60;59.50;;;;;;2566649;52;21418;-64
2021/05/26 08:27:22;;;;;;;3.80;1.27;;;14.60;59.50;;;;;;2382714;53;20922;-63
2021/05/26 08:29:48;;;;;;;4.00;1.02;;;14.60;59.00;;;;;;2376507;53;20980;-65
2021/05/26 08:32:15;;;;;;;3.85;1.23;;;14.60;59.20;;;;;;2354788;53;20902;-64
2021/05/26 08:34:41;;;;;;;5.82;1.10;;;14.60;59.20;;;;;;2374892;53;20973;-65
2021/05/26 08:37:08;;;;;;;4.05;1.37;;;14.60;59.40;;;;;;2377583;53;21037;-64
2021/05/26 08:39:36;;;;;;;3.62;1.10;;;14.60;59.50;;;;;;2370110;53;20928;-65
2021/05/26 08:42:03;;;;;;;4.47;1.40;;;14.60;59.50;;;;;;2623297;52;20985;-64
2021/05/26 08:44:29;;;;;;;5.32;1.25;;;14.70;59.30;;;;;;2626284;52;21379;-65
2021/05/26 08:46:55;;;;;;;3.25;1.05;;;14.70;59.50;;;;;;2374720;53;21419;-63
2021/05/26 08:49:22;;;;;;;3.97;1.10;;;14.70;59.40;;;;;;2378644;52;21509;-66
2021/05/26 08:51:48;;;;;;;3.45;1.05;;;14.80;59.70;;;;;;2374137;52;20945;-65
2021/05/26 08:54:17;;;;;;;5.12;1.20;;;14.80;59.80;;;;;;2627983;52;20917;-65
2021/05/26 08:56:44;;;;;;;4.43;1.58;;;14.80;59.50;;;;;;2378577;52;21556;-65
2021/05/26 08:59:15;;;;;;;5.18;1.00;;;14.80;59.10;;;;;;2604949;52;21418;-65
2021/05/26 09:01:48;;;;;;;3.78;1.10;;;14.90;59.50;;;;;;2375005;53;21483;-65
2021/05/26 09:04:29;;;;;;;4.30;1.12;;;14.90;59.50;;;;;;2494828;52;20945;-65
2021/05/26 09:07:47;;;;;;;6.85;1.10;;;14.90;59.10;;;;;;2598881;52;20917;-64
2021/05/26 09:10:13;;;;;;;4.22;0.88;;;15.00;59.60;;;;;;2628122;52;20933;-64
2021/05/26 09:12:43;;;;;;;5.07;1.50;;;15.00;59.60;;;;;;2624566;52;20933;-65
2021/05/26 09:15:20;;;;;;;4.30;1.62;;;15.00;59.70;;;;;;2377564;53;20933;-65
2021/05/26 09:18:04;;;;;;;4.75;1.20;;;15.10;59.60;;;;;;2374012;53;20945;-65
2021/05/26 09:20:31;;;;;;;4.25;1.25;;;15.20;59.60;;;;;;2376172;52;20949;-65
2021/05/26 09:23:17;;;;;;;4.80;1.25;;;15.10;59.40;;;;;;2628210;52;21441;-65
2021/05/26 09:25:55;;;;;;;5.53;1.80;;;15.20;59.30;;;;;;2453190;52;21022;-65
2021/05/26 09:28:34;;;;;;;5.35;1.90;;;15.20;59.50;;;;;;2362323;53;20917;-65
2021/05/26 09:31:10;;;;;;;5.30;1.60;;;15.30;59.60;;;;;;2381332;52;20952;-73
2021/05/26 09:33:44;;;;;;;5.43;1.77;;;15.20;59.70;;;;;;2374745;53;21395;-66
2021/05/26 09:36:24;;;;;;;6.60;1.27;;;15.30;59.60;;;;;;2627889;52;20929;-67
2021/05/26 09:39:09;;;;;;;3.10;1.10;;;15.30;59.60;;;;;;2374786;52;20886;-65
2021/05/26 09:41:36;;;;;;;6.10;1.20;;;15.40;59.50;;;;;;2629345;52;21000;-65
2021/05/26 09:44:10;;;;;;;3.85;1.10;;;15.40;59.40;;;;;;2373557;53;21064;-65
2021/05/26 09:46:40;;;;;;;2.80;0.90;;;15.50;59.30;;;;;;2374991;53;20961;-65
2021/05/26 09:49:28;;;;;;;3.80;1.00;;;15.50;59.70;;;;;;2379251;52;20921;-65
2021/05/26 09:51:55;;;;;;;3.47;1.10;;;15.60;58.90;;;;;;2598228;52;20990;-66
2021/05/26 09:54:25;;;;;;;4.40;1.35;;;15.70;59.60;;;;;;2373886;53;21003;-64
2021/05/26 09:57:04;;;;;;;3.55;1.00;;;15.70;59.50;;;;;;2378392;52;20941;-66
2021/05/26 09:59:31;;;;;;;4.28;1.10;;;15.80;59.50;;;;;;2376233;52;20997;-65
2021/05/26 10:01:58;;;;;;;3.62;1.37;;;15.80;59.40;;;;;;2378114;53;21001;-65
2021/05/26 10:04:26;;;;;;;6.28;1.10;;;15.90;58.90;;;;;;2375055;53;21044;-65
2021/05/26 10:06:54;;;;;;;3.37;1.30;;;15.90;59.20;;;;;;2375060;52;20960;-66
2021/05/26 10:09:24;;;;;;;3.40;1.30;;;15.90;59.00;;;;;;2379059;52;21363;-64
2021/05/26 10:11:52;;;;;;;7.00;1.83;;;16.00;59.20;;;;;;2373475;53;20965;-65
2021/05/26 10:14:18;;;;;;;7.97;1.87;;;16.00;58.60;;;;;;2379280;53;21497;-65
2021/05/26 10:16:44;;;;;;;3.90;1.60;;;16.10;58.70;;;;;;2374057;52;21773;-66
2021/05/26 10:19:14;;;;;;;6.25;1.98;;;16.10;58.70;;;;;;2374787;53;20969;-65
2021/05/26 10:21:43;;;;;;;4.25;1.55;;;16.10;58.80;;;;;;2375112;53;20985;-65
2021/05/26 10:24:10;;;;;;;4.55;1.40;;;16.10;59.00;;;;;;2628302;52;21706;-66
2021/05/26 10:26:56;;;;;;;11.05;2.03;;;16.10;59.00;;;;;;2379114;52;21758;-65
2021/05/26 10:29:49;;;;;;;4.10;1.33;;;16.10;58.30;;;;;;2374408;53;20945;-65
2021/05/26 10:32:28;;;;;;;4.97;1.20;;;16.10;57.90;;;;;;2378508;52;21029;-64
2021/05/26 10:35:05;;;;;;;3.97;1.17;;;16.10;58.30;;;;;;2374248;53;20881;-65
2021/05/26 10:37:33;;;;;;;3.45;1.00;;;16.10;58.60;;;;;;2395452;52;20998;-67
2021/05/26 10:40:00;;;;;;;3.33;1.10;;;16.20;59.00;;;;;;2354457;53;20978;-68
2021/05/26 10:42:30;;;;;;;5.85;1.40;;;16.20;59.40;;;;;;2378668;52;20941;-69
2021/05/26 10:45:04;;;;;;;3.03;1.00;;;16.30;58.80;;;;;;2375275;53;20922;-66
2021/05/26 10:48:04;;;;;;;7.37;1.80;;;16.30;58.90;;;;;;2628019;52;21001;-66
2021/05/26 10:50:52;;;;;;;3.67;1.12;;;16.30;58.50;;;;;;2354551;53;21655;-67
2021/05/26 10:53:19;;;;;;;3.35;1.48;;;16.40;57.70;;;;;;2375505;53;20934;-66
2021/05/26 10:55:52;;;;;;;3.72;1.00;;;16.40;58.50;;;;;;2379952;52;20937;-67
2021/05/26 10:58:36;;;;;;;3.20;1.00;;;16.40;58.10;;;;;;2358533;53;20977;-67
2021/05/26 11:01:12;;;;;;;6.10;1.50;;;16.40;58.30;;;;;;2340999;53;20968;-68
2021/05/26 11:03:43;;;;;;;4.22;1.30;;;16.40;58.30;;;;;;2372985;52;20932;-67
2021/05/26 11:06:34;;;;;;;5.18;1.65;;;16.40;58.50;;;;;;2375027;53;21318;-66
2021/05/26 11:09:00;;;;;;;2.97;1.42;;;16.40;58.30;;;;;;2354132;53;20953;-67
2021/05/26 11:11:48;;;;;;;3.75;1.30;;;16.40;58.80;;;;;;2379565;52;21455;-69
2021/05/26 11:14:24;;;;;;;4.32;1.05;;;16.40;58.30;;;;;;2377695;52;20966;-69
2021/05/26 11:17:40;;;;;;;3.80;1.20;;;16.50;58.10;;;;;;2375732;53;20954;-68
2021/05/26 11:20:10;;;;;;;;;;;16.50;58.00;;;;;;2380073;53;20960;-66
2021/05/26 11:22:37;;;;;;;4.15;1.35;;;16.50;57.60;;;;;;2375073;52;20062;-64
2021/05/26 11:25:08;;;;;;;3.20;1.25;;;16.50;58.70;;;;;;2375157;52;20905;-65
2021/05/26 11:27:34;;;;;;;3.55;1.30;;;16.50;58.30;;;;;;2382536;53;22219;-65
2021/05/26 11:30:03;;;;;;;4.53;1.05;;;16.60;58.60;;;;;;2627210;52;21779;-65
2021/05/26 11:32:29;;;;;;;4.28;1.30;;;16.60;58.70;;;;;;2374597;53;21239;-65
2021/05/26 11:34:59;;;;;;;5.87;1.30;;;16.60;58.60;;;;;;2375157;53;20927;-65
2021/05/26 11:37:30;;;;;;;2.92;1.12;;;16.60;58.00;;;;;;2374646;53;21509;-65
2021/05/26 11:39:57;;;;;;;3.12;1.10;;;16.60;58.40;;;;;;2628248;52;21640;-65
2021/05/26 11:42:29;;;;;;;3.20;1.08;;;16.70;58.50;;;;;;2374755;52;21762;-66
2021/05/26 11:45:08;;;;;;;3.95;1.12;;;16.70;58.70;;;;;;2627994;52;20897;-65
2021/05/26 11:48:07;;;;;;;5.35;2.10;;;16.70;57.90;;;;;;2377038;53;20993;-66
2021/05/26 11:50:35;;;;;;;3.58;1.50;;;16.80;57.60;;;;;;2446226;52;20933;-65
2021/05/26 11:53:17;;;;;;;3.55;1.50;;;16.80;58.10;;;;;;2374876;53;20997;-64
2021/05/26 11:55:44;;;;;;;4.68;1.85;;;16.70;57.30;;;;;;2374896;53;21453;-65
2021/05/26 11:58:10;;;;;;;3.92;1.35;;;16.70;57.10;;;;;;2374873;52;20910;-65
2021/05/26 12:00:37;;;;;;;4.32;1.20;;;16.70;57.70;;;;;;2375004;52;20949;-65
2021/05/26 12:03:12;;;;;;;3.17;1.17;;;16.70;57.60;;;;;;2355176;53;20985;-65
2021/05/26 12:05:52;;;;;;;4.30;0.85;;;16.70;57.70;;;;;;2377268;52;21438;-65
2021/05/26 12:08:25;;;;;;;3.42;1.17;;;16.80;58.40;;;;;;2628309;52;21751;-66
2021/05/26 12:11:00;;;;;;;3.62;1.17;;;16.80;58.60;;;;;;2362819;52;21016;-65
2021/05/26 12:13:31;;;;;;;3.83;1.20;;;16.80;57.70;;;;;;2374285;53;20912;-65
2021/05/26 12:15:59;;;;;;;3.75;1.20;;;16.90;58.00;;;;;;2627791;52;21775;-64
2021/05/26 12:18:26;;;;;;;4.93;1.45;;;16.90;57.50;;;;;;2367692;53;21029;-65
2021/05/26 12:20:53;;;;;;;2.10;0.77;;;16.90;57.70;;;;;;2454460;52;20937;-64
2021/05/26 12:23:39;;;;;;;3.03;0.90;;;16.90;58.00;;;;;;2375245;52;20965;-65
2021/05/26 12:26:31;;;;;;;4.00;1.50;;;16.90;57.80;;;;;;2599124;52;21009;-65
2021/05/26 12:29:10;;;;;;;2.15;0.88;;;16.90;57.40;;;;;;2377422;53;21791;-64
2021/05/26 12:31:38;;;;;;;4.40;1.50;;;17.00;58.10;;;;;;2628924;52;21363;-65
2021/05/26 12:34:19;;;;;;;2.35;1.00;;;17.00;57.30;;;;;;2375354;53;21501;-65
2021/05/26 12:36:52;;;;;;;4.35;1.40;;;17.00;57.80;;;;;;2379057;52;20992;-65
2021/05/26 12:39:19;;;;;;;4.93;1.52;;;17.00;57.90;;;;;;2370401;53;20928;-64
2021/05/26 12:41:52;;;;;;;3.17;1.25;;;17.10;58.10;;;;;;2364942;52;20938;-65
2021/05/26 12:44:20;;;;;;;3.75;1.00;;;17.10;58.00;;;;;;2374737;53;20937;-65
2021/05/26 12:46:54;;;;;;;5.20;1.25;;;17.10;58.20;;;;;;2374900;53;20925;-65
2021/05/26 12:49:43;;;;;;;3.08;1.12;;;17.10;58.30;;;;;;2378093;53;21525;-64
2021/05/26 12:52:30;;;;;;;4.97;1.30;;;17.20;57.40;;;;;;2625872;52;20941;-64
2021/05/26 12:54:57;;;;;;;3.05;0.90;;;17.20;56.90;;;;;;2375425;52;20996;-65
2021/05/26 12:57:27;;;;;;;3.97;0.93;;;17.20;57.70;;;;;;2374753;53;21001;-65
2021/05/26 13:00:15;;;;;;;3.80;1.20;;;17.20;57.30;;;;;;2378402;52;20938;-65